createdAt,value
2022-08-10T00:00:18.382Z,99192.72
2022-08-10T00:03:22.780Z,99195.50
2022-08-10T00:06:25.442Z,99191.22
2022-08-10T00:09:30.413Z,99192.25
2022-08-10T00:12:54.716Z,99190.72
2022-08-10T00:15:55.891Z,99201.38
2022-08-10T00:18:59.899Z,99192.19
2022-08-10T00:22:02.540Z,99198.09
2022-08-10T00:25:06.072Z,99196.50
2022-08-10T00:28:08.700Z,99200.75
2022-08-10T00:31:11.317Z,99198.94
2022-08-10T00:34:15.553Z,99205.78
2022-08-10T00:37:18.786Z,99204.47
2022-08-10T00:40:37.153Z,99196.66
2022-08-10T00:43:40.759Z,99196.16
2022-08-10T00:46:43.533Z,99194.13
2022-08-10T00:49:47.873Z,99193.50
2022-08-10T00:52:51.177Z,99194.09
2022-08-10T00:57:12.439Z,99197.72
2022-08-10T00:59:16.914Z,99196.88
2022-08-10T01:02:19.756Z,99190.47
2022-08-10T01:05:24.087Z,99185.66
2022-08-10T01:08:31.610Z,99186.38
2022-08-10T01:12:39.169Z,99184.34
2022-08-10T01:15:07.070Z,99190.50
2022-08-10T01:18:14.475Z,99188.25
2022-08-10T01:21:51.030Z,99190.31
2022-08-10T01:25:34.073Z,99191.00
2022-08-10T01:29:09.380Z,99192.47
2022-08-10T01:32:15.249Z,99194.97
2022-08-10T01:35:23.547Z,99198.47
2022-08-10T01:38:28.726Z,99190.56
2022-08-10T01:41:40.889Z,99197.06
2022-08-10T01:44:52.638Z,99197.31
2022-08-10T01:48:16.957Z,99195.28
2022-08-10T01:57:32.104Z,99199.38
2022-08-10T02:00:37.328Z,99197.63
2022-08-10T02:04:03.609Z,99205.25
2022-08-10T02:07:08.509Z,99210.34
2022-08-10T02:10:13.219Z,99201.00
2022-08-10T02:13:18.951Z,99202.16
2022-08-10T02:16:22.789Z,99198.41
2022-08-10T02:19:28.955Z,99200.34
2022-08-10T02:22:45.927Z,99199.66
2022-08-10T02:25:49.633Z,99195.38
2022-08-10T02:28:52.347Z,99194.13
2022-08-10T02:31:55.297Z,99197.88
2022-08-10T02:35:02.894Z,99195.03
2022-08-10T02:38:07.564Z,99200.91
2022-08-10T02:45:12.377Z,99200.25
2022-08-10T02:45:26.114Z,99200.91
2022-08-10T02:48:06.444Z,99206.78
2022-08-10T02:51:17.053Z,99200.81
2022-08-10T02:54:23.262Z,99200.09
2022-08-10T02:57:29.011Z,99204.81
2022-08-10T03:00:32.349Z,99206.91
2022-08-10T03:03:45.804Z,99205.25
2022-08-10T03:06:56.797Z,99204.78
2022-08-10T03:09:59.996Z,99204.09
2022-08-10T03:13:05.043Z,99207.03
2022-08-10T03:16:08.945Z,99208.81
2022-08-10T03:20:35.614Z,99201.81
2022-08-10T03:22:37.860Z,99200.22
2022-08-10T03:25:40.634Z,99197.28
2022-08-10T03:28:44.620Z,99207.00
2022-08-10T03:31:47.983Z,99199.59
2022-08-10T03:34:50.482Z,99204.91
2022-08-10T03:37:59.165Z,99208.47
2022-08-10T03:41:04.176Z,99213.19
2022-08-10T03:44:08.282Z,99207.94
2022-08-10T03:47:15.977Z,99204.03
2022-08-10T03:50:45.150Z,99215.72
2022-08-10T03:54:03.041Z,99214.25
2022-08-10T03:57:06.886Z,99203.78
2022-08-10T04:00:11.015Z,99213.72
2022-08-10T04:03:15.188Z,99219.13
2022-08-10T04:06:18.090Z,99219.44
2022-08-10T04:09:22.310Z,99217.91
2022-08-10T04:12:25.014Z,99223.56
2022-08-10T04:15:27.628Z,99221.16
2022-08-10T04:18:30.438Z,99228.28
2022-08-10T04:21:38.069Z,99226.91
2022-08-10T04:24:43.095Z,99232.75
2022-08-10T04:27:47.403Z,99235.84
2022-08-10T04:30:51.929Z,99230.69
2022-08-10T04:33:55.920Z,99237.81
2022-08-10T04:37:06.714Z,99233.59
2022-08-10T04:40:29.370Z,99234.47
2022-08-10T04:43:33.571Z,99243.31
2022-08-10T04:46:56.408Z,99235.28
2022-08-10T04:49:59.245Z,99240.78
2022-08-10T04:53:02.251Z,99236.38
2022-08-10T04:56:08.567Z,99240.50
2022-08-10T04:59:12.689Z,99237.13
2022-08-10T05:02:29.156Z,99237.78
2022-08-10T05:05:34.623Z,99236.38
2022-08-10T05:08:37.245Z,99239.31
2022-08-10T05:11:41.300Z,99245.75
2022-08-10T05:14:44.195Z,99240.94
2022-08-10T05:18:08.850Z,99244.31
2022-08-10T05:21:09.977Z,99255.59
2022-08-10T05:24:12.624Z,99257.47
2022-08-10T05:27:16.602Z,99243.63
2022-08-10T05:30:21.785Z,99245.50
2022-08-10T05:33:24.363Z,99254.44
2022-08-10T05:36:27.399Z,99255.41
2022-08-10T05:39:32.186Z,99252.00
2022-08-10T05:42:36.537Z,99264.56
2022-08-10T05:46:18.717Z,99258.03
2022-08-10T05:49:02.087Z,99255.66
2022-08-10T05:52:05.258Z,99259.09
2022-08-10T05:55:09.059Z,99256.22
2022-08-10T05:58:13.023Z,99254.78
2022-08-10T06:01:17.985Z,99255.06
2022-08-10T06:04:25.044Z,99268.38
2022-08-10T06:07:28.230Z,99257.88
2022-08-10T06:10:33.006Z,99265.28
2022-08-10T06:14:12.519Z,99259.66
2022-08-10T06:17:17.246Z,99259.53
2022-08-10T06:20:20.074Z,99258.28
2022-08-10T06:23:23.297Z,99264.91
2022-08-10T06:26:26.053Z,99263.44
2022-08-10T06:29:32.217Z,99262.31
2022-08-10T06:32:35.018Z,99261.19
2022-08-10T06:35:37.891Z,99260.47
2022-08-10T06:38:41.959Z,99260.63
2022-08-10T06:42:14.124Z,99260.78
2022-08-10T06:45:14.666Z,99258.53
2022-08-10T06:48:20.387Z,99255.91
2022-08-10T06:51:24.705Z,99251.75
2022-08-10T06:54:28.873Z,99254.59
2022-08-10T06:57:34.221Z,99248.75
2022-08-10T07:00:39.397Z,99249.72
2022-08-10T07:03:45.473Z,99258.66
2022-08-10T07:06:50.639Z,99262.34
2022-08-10T07:09:53.377Z,99255.28
2022-08-10T07:12:58.469Z,99258.94
2022-08-10T07:16:02.425Z,99265.75
2022-08-10T07:19:05.557Z,99258.66
2022-08-10T07:22:08.013Z,99259.94
2022-08-10T07:25:31.021Z,99264.41
2022-08-10T07:28:33.607Z,99260.88
2022-08-10T07:31:55.401Z,99250.97
2022-08-10T07:35:00.969Z,99251.38
2022-08-10T07:38:04.925Z,99245.41
2022-08-10T07:41:09.068Z,99257.41
2022-08-10T07:44:12.504Z,99257.41
2022-08-10T07:47:19.878Z,99257.47
2022-08-10T07:50:44.217Z,99246.69
2022-08-10T07:53:51.343Z,99250.69
2022-08-10T07:56:55.265Z,99247.09
2022-08-10T08:00:00.578Z,99246.28
2022-08-10T08:03:07.404Z,99249.88
2022-08-10T08:06:12.143Z,99242.72
2022-08-10T08:09:15.292Z,99240.28
2022-08-10T08:12:17.894Z,99239.88
2022-08-10T08:16:20.482Z,99241.06
2022-08-10T08:19:03.889Z,99239.00
2022-08-10T08:24:09.605Z,99243.38
2022-08-10T08:25:34.435Z,99244.91
2022-08-10T08:28:37.644Z,99251.16
2022-08-10T08:31:59.141Z,99249.09
2022-08-10T08:35:07.794Z,99241.38
2022-08-10T08:38:30.242Z,99239.72
2022-08-10T08:42:00.234Z,99238.03
2022-08-10T08:45:09.931Z,99238.44
2022-08-10T08:48:26.757Z,99241.94
2022-08-10T08:52:09.539Z,99236.66
2022-08-10T08:55:52.371Z,99240.72
2022-08-10T08:58:49.500Z,99238.53
2022-08-10T09:02:02.518Z,99225.44
2022-08-10T09:05:21.123Z,99231.78
2022-08-10T09:08:31.237Z,99240.88
2022-08-10T09:11:46.860Z,99231.88
2022-08-10T09:14:54.286Z,99232.53
2022-08-10T09:18:08.438Z,99225.38
2022-08-10T09:21:17.131Z,99228.28
2022-08-10T09:24:39.775Z,99222.91
2022-08-10T09:27:45.652Z,99224.41
2022-08-10T09:31:20.904Z,99220.06
2022-08-10T09:36:24.975Z,99230.03
2022-08-10T09:38:02.410Z,99226.31
2022-08-10T09:41:16.671Z,99227.31
2022-08-10T09:44:28.092Z,99213.34
2022-08-10T09:48:02.371Z,99208.38
2022-08-10T09:54:44.812Z,99204.75
2022-08-10T09:57:59.825Z,99198.75
2022-08-10T10:01:07.529Z,99207.44
2022-08-10T10:04:38.494Z,99201.00
2022-08-10T10:07:46.782Z,99203.03
2022-08-10T10:10:57.675Z,99202.34
2022-08-10T10:14:12.671Z,99218.09
2022-08-10T10:17:18.783Z,99201.75
2022-08-10T10:20:27.105Z,99197.97
2022-08-10T10:23:40.032Z,99193.34
2022-08-10T10:26:45.551Z,99201.41
2022-08-10T10:29:57.612Z,99189.06
2022-08-10T10:33:13.246Z,99194.63
2022-08-10T10:36:17.437Z,99189.75
2022-08-10T10:39:24.108Z,99182.53
2022-08-10T10:42:47.901Z,99189.13
2022-08-10T10:45:59.391Z,99192.91
2022-08-10T10:49:08.910Z,99175.78
2022-08-10T10:52:20.575Z,99172.53
2022-08-10T10:56:13.414Z,99166.97
2022-08-10T10:59:16.043Z,99176.00
2022-08-10T11:02:39.920Z,99164.38
2022-08-10T11:05:47.203Z,99156.16
2022-08-10T11:08:52.053Z,99151.41
2022-08-10T11:12:01.690Z,99157.84
2022-08-10T11:15:09.131Z,99151.13
2022-08-10T11:18:24.066Z,99149.44
2022-08-10T11:21:39.390Z,99156.56
2022-08-10T11:24:50.477Z,99156.13
2022-08-10T11:27:58.157Z,99156.28
2022-08-10T11:31:06.200Z,99158.31
2022-08-10T11:34:48.976Z,99151.31
2022-08-10T11:38:30.049Z,99156.44
2022-08-10T11:42:11.981Z,99159.38
2022-08-10T11:44:35.907Z,99154.53
2022-08-10T11:47:42.837Z,99163.81
2022-08-10T11:50:49.745Z,99150.91
2022-08-10T11:54:02.036Z,99148.53
2022-08-10T11:57:05.074Z,99149.41
2022-08-10T12:00:08.105Z,99145.19
2022-08-10T12:03:10.827Z,99140.91
2022-08-10T12:06:33.693Z,99151.81
2022-08-10T12:10:09.195Z,99134.13
2022-08-10T12:13:09.708Z,99129.44
2022-08-10T12:16:16.374Z,99139.06
2022-08-10T12:19:22.905Z,99145.81
2022-08-10T12:22:32.237Z,99126.63
2022-08-10T12:25:57.108Z,99138.25
2022-08-10T12:29:05.673Z,99123.91
2022-08-10T12:32:13.726Z,99123.53
2022-08-10T12:35:23.704Z,99139.41
2022-08-10T12:38:36.257Z,99131.13
2022-08-10T12:41:46.257Z,99116.16
2022-08-10T12:44:51.658Z,99123.34
2022-08-10T12:48:00.760Z,99112.81
2022-08-10T12:51:06.760Z,99106.00
2022-08-10T12:54:13.618Z,99111.41
2022-08-10T12:57:18.470Z,99106.75
2022-08-10T13:00:21.238Z,99116.81
2022-08-10T13:04:21.634Z,99105.56
2022-08-10T13:06:49.705Z,99100.56
2022-08-10T13:09:55.657Z,99092.59
2022-08-10T13:13:00.671Z,99088.53
2022-08-10T13:16:04.293Z,99084.53
2022-08-10T13:19:08.157Z,99077.59
2022-08-10T13:22:11.213Z,99078.31
2022-08-10T13:25:16.560Z,99068.47
2022-08-10T13:28:35.513Z,99063.56
2022-08-10T13:32:09.422Z,99059.03
2022-08-10T13:35:10.028Z,99047.34
2022-08-10T13:38:15.767Z,99052.59
2022-08-10T13:41:20.651Z,99060.59
2022-08-10T13:44:33.581Z,99045.47
2022-08-10T13:47:48.086Z,99048.06
2022-08-10T13:50:58.090Z,99032.97
2022-08-10T13:54:01.331Z,99039.25
2022-08-10T13:57:05.906Z,99044.81
2022-08-10T14:00:37.729Z,99044.53
2022-08-10T14:03:37.420Z,99040.44
2022-08-10T14:06:41.089Z,99037.97
2022-08-10T14:09:44.493Z,99026.56
2022-08-10T14:12:49.715Z,99034.06
2022-08-10T14:15:53.363Z,99016.03
2022-08-10T14:18:59.103Z,99017.97
2022-08-10T14:22:01.809Z,99017.47
2022-08-10T14:25:09.185Z,99022.00
2022-08-10T14:28:13.287Z,99011.25
2022-08-10T14:31:22.242Z,99020.16
2022-08-10T14:36:15.435Z,99001.13
2022-08-10T14:37:56.177Z,98998.34
2022-08-10T14:41:02.595Z,98993.06
2022-08-10T14:44:09.141Z,99001.88
2022-08-10T14:47:53.245Z,98995.44
2022-08-10T14:50:34.903Z,98988.56
2022-08-10T14:53:38.252Z,98987.06
2022-08-10T14:56:41.895Z,98992.78
2022-08-10T15:00:25.007Z,98979.19
2022-08-10T15:03:11.279Z,98969.06
2022-08-10T15:06:35.917Z,98987.81
2022-08-10T15:10:01.612Z,98969.09
2022-08-10T15:13:07.681Z,98974.75
2022-08-10T15:16:34.128Z,98965.56
2022-08-10T15:20:03.119Z,98967.72
2022-08-10T15:23:06.965Z,98959.41
2022-08-10T15:26:11.655Z,98964.97
2022-08-10T15:29:22.711Z,98960.16
2022-08-10T15:32:56.182Z,98960.59
2022-08-10T15:36:16.501Z,98951.16
2022-08-10T15:40:25.174Z,98957.69
2022-08-10T15:42:58.307Z,98956.16
2022-08-10T15:46:06.440Z,98949.44
2022-08-10T15:49:25.267Z,98950.34
2022-08-10T15:52:39.390Z,98950.66
2022-08-10T15:55:56.449Z,98936.50
2022-08-10T15:59:08.227Z,98938.66
2022-08-10T16:02:17.216Z,98940.56
2022-08-10T16:05:40.736Z,98932.38
2022-08-10T16:08:55.967Z,98924.19
2022-08-10T16:12:16.426Z,98928.06
2022-08-10T16:15:22.908Z,98928.28
2022-08-10T16:18:26.567Z,98921.81
2022-08-10T16:21:30.773Z,98913.31
2022-08-10T16:24:37.169Z,98919.00
2022-08-10T16:27:40.299Z,98917.19
2022-08-10T16:30:44.969Z,98918.41
2022-08-10T16:33:53.176Z,98920.09
2022-08-10T16:36:59.813Z,98916.78
2022-08-10T16:40:03.159Z,98914.72
2022-08-10T16:43:09.200Z,98907.19
2022-08-10T16:46:14.623Z,98903.81
2022-08-10T16:49:19.235Z,98910.91
2022-08-10T16:52:26.271Z,98908.31
2022-08-10T16:55:47.422Z,98897.94
2022-08-10T16:58:55.782Z,98892.16
2022-08-10T17:01:59.874Z,98885.63
2022-08-10T17:05:04.983Z,98889.53
2022-08-10T17:08:11.549Z,98878.81
2022-08-10T17:11:14.423Z,98874.16
2022-08-10T17:14:17.163Z,98876.34
2022-08-10T17:17:22.085Z,98878.13
2022-08-10T17:20:30.767Z,98881.22
2022-08-10T17:23:39.015Z,98873.38
2022-08-10T17:26:42.613Z,98877.78
2022-08-10T17:29:57.879Z,98887.88
2022-08-10T17:33:11.576Z,98887.16
2022-08-10T17:36:14.963Z,98884.81
2022-08-10T17:39:23.760Z,98886.22
2022-08-10T17:42:26.758Z,98885.38
2022-08-10T17:45:48.173Z,98883.47
2022-08-10T17:48:53.071Z,98889.13
2022-08-10T17:51:57.801Z,98882.50
2022-08-10T17:55:04.952Z,98889.06
2022-08-10T17:58:13.741Z,98887.13
2022-08-10T18:01:41.842Z,98885.56
2022-08-10T18:04:48.544Z,98890.13
2022-08-10T18:07:52.945Z,98890.13
2022-08-10T18:10:58.196Z,98900.44
2022-08-10T18:14:03.204Z,98904.94
2022-08-10T18:17:10.855Z,98904.00
2022-08-10T18:20:14.308Z,98904.25
2022-08-10T18:23:16.946Z,98903.16
2022-08-10T18:26:21.294Z,98898.59
2022-08-10T18:29:27.353Z,98904.22
2022-08-10T18:32:34.858Z,98905.19
2022-08-10T18:35:38.590Z,98913.97
2022-08-10T18:38:45.906Z,98915.81
2022-08-10T18:42:00.206Z,98915.53
2022-08-10T18:45:12.267Z,98913.22
2022-08-10T18:48:17.742Z,98911.78
2022-08-10T18:51:25.063Z,98918.78
2022-08-10T18:54:39.902Z,98926.06
2022-08-10T18:58:02.637Z,98933.81
2022-08-10T19:01:17.113Z,98935.91
2022-08-10T19:04:29.618Z,98934.13
2022-08-10T19:07:44.670Z,98930.72
2022-08-10T19:10:52.425Z,98940.44
2022-08-10T19:14:04.159Z,98939.00
2022-08-10T19:17:14.025Z,98946.22
2022-08-10T19:20:23.662Z,98953.88
2022-08-10T19:23:39.235Z,98953.94
2022-08-10T19:26:46.362Z,98953.97
2022-08-10T19:30:08.411Z,98963.59
2022-08-10T19:33:23.441Z,98965.22
2022-08-10T19:36:30.751Z,98970.41
2022-08-10T19:39:50.273Z,98962.44
2022-08-10T19:42:56.593Z,98962.91
2022-08-10T19:46:03.224Z,98968.91
2022-08-10T19:49:14.581Z,98964.91
2022-08-10T19:52:31.738Z,98962.13
2022-08-10T19:55:38.756Z,98964.53
2022-08-10T19:58:49.912Z,98960.16
2022-08-10T20:01:56.576Z,98970.53
2022-08-10T20:05:04.494Z,98970.53
2022-08-10T20:08:15.363Z,98969.75
2022-08-10T20:11:44.499Z,98977.31
2022-08-10T20:14:50.844Z,98982.09
2022-08-10T20:17:57.522Z,98977.25
2022-08-10T20:21:05.099Z,98981.25
2022-08-10T20:24:12.022Z,98980.41
2022-08-10T20:27:59.211Z,98979.59
2022-08-10T20:30:49.399Z,98976.41
2022-08-10T20:34:01.010Z,98990.31
2022-08-10T20:37:08.104Z,98979.97
2022-08-10T20:40:15.263Z,98985.13
2022-08-10T20:43:25.695Z,98983.91
2022-08-10T20:46:31.662Z,98986.97
2022-08-10T20:49:42.745Z,98984.94
2022-08-10T20:52:46.261Z,98980.97
2022-08-10T20:55:55.217Z,98984.53
2022-08-10T20:59:21.747Z,98981.34
2022-08-10T21:02:35.624Z,98986.97
2022-08-10T21:05:55.034Z,98977.34
2022-08-10T21:09:06.433Z,98969.34
2022-08-10T21:12:44.169Z,98973.72
2022-08-10T21:15:55.605Z,98971.72
2022-08-10T21:19:15.130Z,98972.81
2022-08-10T21:22:21.526Z,98975.06
2022-08-10T21:25:41.675Z,98975.34
2022-08-10T21:29:07.481Z,98976.09
2022-08-10T21:32:20.070Z,98980.03
2022-08-10T21:35:37.122Z,98981.63
2022-08-10T21:38:48.770Z,98986.38
2022-08-10T21:42:17.119Z,98981.16
2022-08-10T21:45:59.677Z,98981.16
2022-08-10T21:49:22.890Z,98974.81
2022-08-10T21:52:53.661Z,98981.91
2022-08-10T21:56:20.500Z,98980.25
2022-08-10T21:59:46.025Z,98981.13
2022-08-10T22:03:08.404Z,98978.66
2022-08-10T22:06:30.729Z,98976.91
2022-08-10T22:09:54.102Z,98974.66
2022-08-10T22:13:19.652Z,98979.22
2022-08-10T22:16:45.131Z,98980.09
2022-08-10T22:20:06.984Z,98978.09
2022-08-10T22:23:47.892Z,98984.25
2022-08-10T22:27:47.290Z,98988.06
2022-08-10T22:31:29.840Z,98990.94
2022-08-10T22:35:08.045Z,98989.88
2022-08-10T22:38:38.014Z,98976.41
2022-08-10T22:42:07.193Z,98980.06
2022-08-10T22:45:28.682Z,98983.50
2022-08-10T22:48:58.524Z,98991.34
2022-08-10T22:52:04.380Z,98980.81
2022-08-10T22:55:29.814Z,98988.66
2022-08-10T22:58:41.656Z,98992.13
2022-08-10T23:02:07.972Z,98991.13
2022-08-10T23:05:12.433Z,98987.66
2022-08-10T23:08:29.777Z,98985.53
2022-08-10T23:11:37.246Z,98984.34
2022-08-10T23:14:40.876Z,98984.88
2022-08-10T23:18:07.599Z,98989.03
2022-08-10T23:21:15.068Z,98997.69
2022-08-10T23:24:18.578Z,98987.63
2022-08-10T23:27:39.274Z,98988.81
2022-08-10T23:30:45.137Z,98982.97
2022-08-10T23:33:55.353Z,98989.19
2022-08-10T23:37:01.244Z,98985.22
2022-08-10T23:40:08.345Z,98975.63
2022-08-10T23:43:16.406Z,98983.41
2022-08-10T23:46:24.275Z,98984.22
2022-08-10T23:49:34.164Z,98984.00
2022-08-10T23:52:38.869Z,98975.25
2022-08-10T23:55:49.149Z,98984.28
2022-08-10T23:58:55.712Z,98979.00
